sensor_id;sensor_type;location;lat;lon;timestamp;P1;durP1;ratioP1;P2;durP2;ratioP2
76115;SDS011;64847;45.778;12.802;2023-07-16T00:01:57;5.32;;;4.43;;
76115;SDS011;64847;45.778;12.802;2023-07-16T00:04:22;6.68;;;5.45;;
76115;SDS011;64847;45.778;12.802;2023-07-16T00:06:48;5.22;;;4.82;;
76115;SDS011;64847;45.778;12.802;2023-07-16T00:09:13;6.32;;;5.10;;
76115;SDS011;64847;45.778;12.802;2023-07-16T00:11:39;6.45;;;5.53;;
76115;SDS011;64847;45.778;12.802;2023-07-16T00:14:04;5.75;;;5.32;;
76115;SDS011;64847;45.778;12.802;2023-07-16T00:16:30;6.00;;;5.43;;
76115;SDS011;64847;45.778;12.802;2023-07-16T00:18:55;6.07;;;5.57;;
76115;SDS011;64847;45.778;12.802;2023-07-16T00:21:21;7.55;;;6.63;;
76115;SDS011;64847;45.778;12.802;2023-07-16T00:23:46;6.30;;;5.80;;
76115;SDS011;64847;45.778;12.802;2023-07-16T00:26:12;6.68;;;6.00;;
76115;SDS011;64847;45.778;12.802;2023-07-16T00:28:38;8.73;;;5.82;;
76115;SDS011;64847;45.778;12.802;2023-07-16T00:31:03;6.57;;;5.93;;
76115;SDS011;64847;45.778;12.802;2023-07-16T00:33:29;5.50;;;5.10;;
76115;SDS011;64847;45.778;12.802;2023-07-16T00:35:54;5.60;;;5.15;;
76115;SDS011;64847;45.778;12.802;2023-07-16T00:38:20;5.53;;;4.82;;
76115;SDS011;64847;45.778;12.802;2023-07-16T00:40:45;5.95;;;5.45;;
76115;SDS011;64847;45.778;12.802;2023-07-16T00:43:11;7.30;;;5.85;;
76115;SDS011;64847;45.778;12.802;2023-07-16T00:45:37;5.80;;;5.40;;
76115;SDS011;64847;45.778;12.802;2023-07-16T00:48:04;6.32;;;5.82;;
76115;SDS011;64847;45.778;12.802;2023-07-16T00:50:31;8.82;;;6.32;;
76115;SDS011;64847;45.778;12.802;2023-07-16T00:52:59;6.22;;;5.72;;
76115;SDS011;64847;45.778;12.802;2023-07-16T00:55:25;6.80;;;6.07;;
76115;SDS011;64847;45.778;12.802;2023-07-16T00:57:51;7.00;;;5.60;;
76115;SDS011;64847;45.778;12.802;2023-07-16T01:00:17;6.18;;;5.63;;
76115;SDS011;64847;45.778;12.802;2023-07-16T01:02:43;6.25;;;5.65;;
76115;SDS011;64847;45.778;12.802;2023-07-16T01:05:08;7.15;;;6.13;;
76115;SDS011;64847;45.778;12.802;2023-07-16T01:07:34;6.45;;;5.82;;
76115;SDS011;64847;45.778;12.802;2023-07-16T01:09:59;6.45;;;5.95;;
76115;SDS011;64847;45.778;12.802;2023-07-16T01:12:25;5.88;;;5.38;;
76115;SDS011;64847;45.778;12.802;2023-07-16T01:14:52;7.30;;;6.00;;
76115;SDS011;64847;45.778;12.802;2023-07-16T01:17:17;6.47;;;5.57;;
76115;SDS011;64847;45.778;12.802;2023-07-16T01:19:43;5.20;;;4.78;;
76115;SDS011;64847;45.778;12.802;2023-07-16T01:30:47;6.05;;;5.45;;
76115;SDS011;64847;45.778;12.802;2023-07-16T01:33:13;6.22;;;5.45;;
76115;SDS011;64847;45.778;12.802;2023-07-16T01:35:39;5.95;;;5.45;;
76115;SDS011;64847;45.778;12.802;2023-07-16T01:38:06;6.25;;;5.32;;
76115;SDS011;64847;45.778;12.802;2023-07-16T01:40:34;7.15;;;5.90;;
76115;SDS011;64847;45.778;12.802;2023-07-16T01:42:59;6.28;;;5.78;;
76115;SDS011;64847;45.778;12.802;2023-07-16T01:45:24;5.60;;;5.13;;
76115;SDS011;64847;45.778;12.802;2023-07-16T01:50:36;5.93;;;5.43;;
76115;SDS011;64847;45.778;12.802;2023-07-16T01:53:01;5.45;;;5.05;;
76115;SDS011;64847;45.778;12.802;2023-07-16T01:55:27;6.18;;;5.68;;
76115;SDS011;64847;45.778;12.802;2023-07-16T01:57:52;5.55;;;5.13;;
76115;SDS011;64847;45.778;12.802;2023-07-16T02:00:17;6.97;;;6.28;;
76115;SDS011;64847;45.778;12.802;2023-07-16T02:02:43;6.30;;;5.80;;
76115;SDS011;64847;45.778;12.802;2023-07-16T02:05:08;6.65;;;6.05;;
76115;SDS011;64847;45.778;12.802;2023-07-16T02:07:34;7.53;;;6.85;;
76115;SDS011;64847;45.778;12.802;2023-07-16T02:10:00;6.47;;;5.90;;
76115;SDS011;64847;45.778;12.802;2023-07-16T02:12:25;7.93;;;6.28;;
76115;SDS011;64847;45.778;12.802;2023-07-16T02:14:50;7.40;;;6.70;;
76115;SDS011;64847;45.778;12.802;2023-07-16T02:17:16;8.15;;;6.18;;
76115;SDS011;64847;45.778;12.802;2023-07-16T02:19:41;6.72;;;6.15;;
76115;SDS011;64847;45.778;12.802;2023-07-16T02:22:07;7.00;;;6.28;;
76115;SDS011;64847;45.778;12.802;2023-07-16T02:24:33;7.18;;;6.45;;
76115;SDS011;64847;45.778;12.802;2023-07-16T02:26:58;8.05;;;7.20;;
76115;SDS011;64847;45.778;12.802;2023-07-16T02:29:23;7.20;;;6.63;;
76115;SDS011;64847;45.778;12.802;2023-07-16T02:31:49;6.80;;;6.30;;
76115;SDS011;64847;45.778;12.802;2023-07-16T02:34:14;8.48;;;7.68;;
76115;SDS011;64847;45.778;12.802;2023-07-16T02:36:40;8.43;;;7.70;;
76115;SDS011;64847;45.778;12.802;2023-07-16T02:39:05;6.65;;;6.05;;
76115;SDS011;64847;45.778;12.802;2023-07-16T02:41:30;6.82;;;6.28;;
76115;SDS011;64847;45.778;12.802;2023-07-16T02:44:00;7.40;;;6.80;;
76115;SDS011;64847;45.778;12.802;2023-07-16T02:46:26;8.80;;;8.05;;
76115;SDS011;64847;45.778;12.802;2023-07-16T02:48:52;8.07;;;7.38;;
76115;SDS011;64847;45.778;12.802;2023-07-16T02:51:17;6.60;;;6.10;;
76115;SDS011;64847;45.778;12.802;2023-07-16T02:53:42;7.25;;;6.63;;
76115;SDS011;64847;45.778;12.802;2023-07-16T02:56:08;8.23;;;7.50;;
76115;SDS011;64847;45.778;12.802;2023-07-16T02:58:33;7.28;;;6.57;;
76115;SDS011;64847;45.778;12.802;2023-07-16T03:00:58;8.48;;;7.80;;
76115;SDS011;64847;45.778;12.802;2023-07-16T03:03:24;8.88;;;8.13;;
76115;SDS011;64847;45.778;12.802;2023-07-16T03:05:49;9.18;;;8.38;;
76115;SDS011;64847;45.778;12.802;2023-07-16T03:08:15;11.07;;;8.98;;
76115;SDS011;64847;45.778;12.802;2023-07-16T03:10:40;11.05;;;9.95;;
76115;SDS011;64847;45.778;12.802;2023-07-16T03:13:05;10.15;;;9.20;;
76115;SDS011;64847;45.778;12.802;2023-07-16T03:15:31;8.40;;;7.70;;
76115;SDS011;64847;45.778;12.802;2023-07-16T03:17:56;8.32;;;7.57;;
76115;SDS011;64847;45.778;12.802;2023-07-16T03:20:21;8.55;;;7.72;;
76115;SDS011;64847;45.778;12.802;2023-07-16T03:22:47;9.63;;;8.93;;
76115;SDS011;64847;45.778;12.802;2023-07-16T03:25:13;9.25;;;8.35;;
76115;SDS011;64847;45.778;12.802;2023-07-16T03:27:38;8.43;;;7.78;;
76115;SDS011;64847;45.778;12.802;2023-07-16T03:30:04;8.85;;;8.05;;
76115;SDS011;64847;45.778;12.802;2023-07-16T03:32:29;8.80;;;7.75;;
76115;SDS011;64847;45.778;12.802;2023-07-16T03:34:55;8.27;;;7.57;;
76115;SDS011;64847;45.778;12.802;2023-07-16T03:37:20;9.50;;;8.60;;
76115;SDS011;64847;45.778;12.802;2023-07-16T03:39:46;9.10;;;8.25;;
76115;SDS011;64847;45.778;12.802;2023-07-16T03:42:11;8.13;;;7.32;;
76115;SDS011;64847;45.778;12.802;2023-07-16T03:44:36;8.50;;;7.78;;
76115;SDS011;64847;45.778;12.802;2023-07-16T03:47:02;7.65;;;7.05;;
76115;SDS011;64847;45.778;12.802;2023-07-16T03:49:27;8.90;;;8.20;;
76115;SDS011;64847;45.778;12.802;2023-07-16T03:51:53;8.10;;;7.40;;
76115;SDS011;64847;45.778;12.802;2023-07-16T03:54:18;7.60;;;7.03;;
76115;SDS011;64847;45.778;12.802;2023-07-16T03:56:43;7.57;;;6.97;;
76115;SDS011;64847;45.778;12.802;2023-07-16T03:59:09;8.23;;;7.57;;
76115;SDS011;64847;45.778;12.802;2023-07-16T04:01:34;8.13;;;7.32;;
76115;SDS011;64847;45.778;12.802;2023-07-16T04:04:00;8.07;;;7.47;;
76115;SDS011;64847;45.778;12.802;2023-07-16T04:06:25;8.45;;;7.75;;
76115;SDS011;64847;45.778;12.802;2023-07-16T04:08:51;8.45;;;7.65;;
76115;SDS011;64847;45.778;12.802;2023-07-16T04:11:16;7.93;;;7.25;;
76115;SDS011;64847;45.778;12.802;2023-07-16T04:13:42;9.50;;;7.18;;
76115;SDS011;64847;45.778;12.802;2023-07-16T04:16:07;7.15;;;6.55;;
76115;SDS011;64847;45.778;12.802;2023-07-16T04:18:33;7.47;;;6.88;;
76115;SDS011;64847;45.778;12.802;2023-07-16T04:20:58;7.45;;;6.75;;
76115;SDS011;64847;45.778;12.802;2023-07-16T04:23:23;7.10;;;6.50;;
76115;SDS011;64847;45.778;12.802;2023-07-16T04:25:52;7.35;;;6.70;;
76115;SDS011;64847;45.778;12.802;2023-07-16T04:28:18;7.20;;;6.53;;
76115;SDS011;64847;45.778;12.802;2023-07-16T04:30:44;6.50;;;5.97;;
76115;SDS011;64847;45.778;12.802;2023-07-16T04:33:09;6.57;;;6.07;;
76115;SDS011;64847;45.778;12.802;2023-07-16T04:35:35;7.07;;;6.55;;
76115;SDS011;64847;45.778;12.802;2023-07-16T04:38:00;6.30;;;5.80;;
76115;SDS011;64847;45.778;12.802;2023-07-16T04:40:26;6.30;;;5.80;;
76115;SDS011;64847;45.778;12.802;2023-07-16T04:42:54;6.20;;;5.70;;
76115;SDS011;64847;45.778;12.802;2023-07-16T04:45:19;6.65;;;6.13;;
76115;SDS011;64847;45.778;12.802;2023-07-16T04:47:44;6.05;;;5.55;;
76115;SDS011;64847;45.778;12.802;2023-07-16T04:50:10;5.97;;;5.47;;
76115;SDS011;64847;45.778;12.802;2023-07-16T04:52:35;6.28;;;5.78;;
76115;SDS011;64847;45.778;12.802;2023-07-16T04:55:01;6.03;;;5.53;;
76115;SDS011;64847;45.778;12.802;2023-07-16T04:57:26;6.57;;;5.97;;
76115;SDS011;64847;45.778;12.802;2023-07-16T04:59:51;6.18;;;5.63;;
76115;SDS011;64847;45.778;12.802;2023-07-16T05:02:17;5.97;;;5.38;;
76115;SDS011;64847;45.778;12.802;2023-07-16T05:04:43;5.22;;;4.82;;
76115;SDS011;64847;45.778;12.802;2023-07-16T05:07:09;6.40;;;5.80;;
76115;SDS011;64847;45.778;12.802;2023-07-16T05:09:35;5.80;;;5.30;;
76115;SDS011;64847;45.778;12.802;2023-07-16T05:12:00;5.25;;;4.85;;
76115;SDS011;64847;45.778;12.802;2023-07-16T05:14:26;5.97;;;5.47;;
76115;SDS011;64847;45.778;12.802;2023-07-16T05:16:52;5.10;;;4.65;;
76115;SDS011;64847;45.778;12.802;2023-07-16T05:19:18;4.95;;;4.60;;
76115;SDS011;64847;45.778;12.802;2023-07-16T05:21:43;5.32;;;4.90;;
76115;SDS011;64847;45.778;12.802;2023-07-16T05:24:09;5.93;;;5.13;;
76115;SDS011;64847;45.778;12.802;2023-07-16T05:26:34;5.18;;;4.60;;
76115;SDS011;64847;45.778;12.802;2023-07-16T05:28:59;5.18;;;4.72;;
76115;SDS011;64847;45.778;12.802;2023-07-16T05:31:25;5.05;;;4.18;;
76115;SDS011;64847;45.778;12.802;2023-07-16T05:33:50;5.00;;;4.50;;
76115;SDS011;64847;45.778;12.802;2023-07-16T05:36:16;5.55;;;4.95;;
76115;SDS011;64847;45.778;12.802;2023-07-16T05:38:41;4.63;;;4.25;;
76115;SDS011;64847;45.778;12.802;2023-07-16T05:41:06;5.22;;;4.72;;
76115;SDS011;64847;45.778;12.802;2023-07-16T05:43:32;5.40;;;4.65;;
76115;SDS011;64847;45.778;12.802;2023-07-16T05:45:58;4.85;;;4.45;;
76115;SDS011;64847;45.778;12.802;2023-07-16T05:48:24;5.90;;;5.05;;
76115;SDS011;64847;45.778;12.802;2023-07-16T05:50:49;5.78;;;4.85;;
76115;SDS011;64847;45.778;12.802;2023-07-16T05:53:15;4.38;;;4.05;;
76115;SDS011;64847;45.778;12.802;2023-07-16T05:55:40;4.20;;;3.90;;
76115;SDS011;64847;45.778;12.802;2023-07-16T05:58:05;4.05;;;3.75;;
76115;SDS011;64847;45.778;12.802;2023-07-16T06:00:31;5.10;;;4.13;;
76115;SDS011;64847;45.778;12.802;2023-07-16T06:02:56;3.85;;;3.60;;
76115;SDS011;64847;45.778;12.802;2023-07-16T06:05:22;4.18;;;3.88;;
76115;SDS011;64847;45.778;12.802;2023-07-16T06:07:49;3.88;;;3.58;;
76115;SDS011;64847;45.778;12.802;2023-07-16T06:10:15;4.72;;;3.90;;
76115;SDS011;64847;45.778;12.802;2023-07-16T06:12:41;4.78;;;3.70;;
76115;SDS011;64847;45.778;12.802;2023-07-16T06:15:06;3.92;;;3.63;;
76115;SDS011;64847;45.778;12.802;2023-07-16T06:17:32;4.20;;;3.88;;
76115;SDS011;64847;45.778;12.802;2023-07-16T06:19:57;3.80;;;3.50;;
76115;SDS011;64847;45.778;12.802;2023-07-16T06:22:23;4.43;;;4.13;;
76115;SDS011;64847;45.778;12.802;2023-07-16T06:24:48;3.85;;;3.55;;
76115;SDS011;64847;45.778;12.802;2023-07-16T06:27:14;5.10;;;3.97;;
76115;SDS011;64847;45.778;12.802;2023-07-16T06:29:39;3.92;;;3.63;;
76115;SDS011;64847;45.778;12.802;2023-07-16T06:32:05;3.92;;;3.55;;
76115;SDS011;64847;45.778;12.802;2023-07-16T06:34:31;3.78;;;3.58;;
76115;SDS011;64847;45.778;12.802;2023-07-16T06:36:56;3.78;;;3.33;;
76115;SDS011;64847;45.778;12.802;2023-07-16T06:39:22;3.80;;;3.50;;
76115;SDS011;64847;45.778;12.802;2023-07-16T06:41:47;4.22;;;3.35;;
76115;SDS011;64847;45.778;12.802;2023-07-16T06:44:12;3.40;;;3.10;;
76115;SDS011;64847;45.778;12.802;2023-07-16T06:46:38;3.50;;;3.20;;
76115;SDS011;64847;45.778;12.802;2023-07-16T06:49:05;3.40;;;3.13;;
76115;SDS011;64847;45.778;12.802;2023-07-16T06:51:31;3.30;;;3.00;;
76115;SDS011;64847;45.778;12.802;2023-07-16T06:53:57;3.25;;;3.05;;
76115;SDS011;64847;45.778;12.802;2023-07-16T06:56:22;3.38;;;3.05;;
76115;SDS011;64847;45.778;12.802;2023-07-16T06:58:48;3.08;;;2.88;;
76115;SDS011;64847;45.778;12.802;2023-07-16T07:01:13;3.10;;;2.78;;
76115;SDS011;64847;45.778;12.802;2023-07-16T07:03:39;3.05;;;2.78;;
76115;SDS011;64847;45.778;12.802;2023-07-16T07:06:04;4.10;;;3.10;;
76115;SDS011;64847;45.778;12.802;2023-07-16T07:08:30;3.13;;;2.80;;
76115;SDS011;64847;45.778;12.802;2023-07-16T07:10:56;3.67;;;3.30;;
76115;SDS011;64847;45.778;12.802;2023-07-16T07:13:21;3.10;;;2.80;;
76115;SDS011;64847;45.778;12.802;2023-07-16T07:15:47;3.03;;;2.83;;
76115;SDS011;64847;45.778;12.802;2023-07-16T07:18:13;3.10;;;2.83;;
76115;SDS011;64847;45.778;12.802;2023-07-16T07:20:41;3.40;;;3.00;;
76115;SDS011;64847;45.778;12.802;2023-07-16T07:23:07;4.53;;;3.00;;
76115;SDS011;64847;45.778;12.802;2023-07-16T07:25:32;2.92;;;2.70;;
76115;SDS011;64847;45.778;12.802;2023-07-16T07:27:58;2.83;;;2.63;;
76115;SDS011;64847;45.778;12.802;2023-07-16T07:30:24;3.03;;;2.70;;
76115;SDS011;64847;45.778;12.802;2023-07-16T07:32:50;3.30;;;3.00;;
76115;SDS011;64847;45.778;12.802;2023-07-16T07:35:15;3.30;;;3.00;;
76115;SDS011;64847;45.778;12.802;2023-07-16T07:37:41;3.92;;;2.90;;
76115;SDS011;64847;45.778;12.802;2023-07-16T07:40:06;3.15;;;2.85;;
76115;SDS011;64847;45.778;12.802;2023-07-16T07:42:32;3.13;;;2.90;;
76115;SDS011;64847;45.778;12.802;2023-07-16T07:44:58;3.30;;;3.00;;
76115;SDS011;64847;45.778;12.802;2023-07-16T07:47:23;3.05;;;2.75;;
76115;SDS011;64847;45.778;12.802;2023-07-16T07:49:49;2.65;;;2.47;;
76115;SDS011;64847;45.778;12.802;2023-07-16T07:52:14;3.85;;;2.90;;
76115;SDS011;64847;45.778;12.802;2023-07-16T07:54:40;2.67;;;2.50;;
76115;SDS011;64847;45.778;12.802;2023-07-16T07:57:05;3.20;;;2.90;;
76115;SDS011;64847;45.778;12.802;2023-07-16T07:59:31;2.88;;;2.70;;
76115;SDS011;64847;45.778;12.802;2023-07-16T08:01:57;3.30;;;3.00;;
76115;SDS011;64847;45.778;12.802;2023-07-16T08:04:23;3.00;;;2.80;;
76115;SDS011;64847;45.778;12.802;2023-07-16T08:06:50;4.28;;;2.85;;
76115;SDS011;64847;45.778;12.802;2023-07-16T08:09:15;3.13;;;2.90;;
76115;SDS011;64847;45.778;12.802;2023-07-16T08:11:41;2.88;;;2.67;;
76115;SDS011;64847;45.778;12.802;2023-07-16T08:14:06;3.90;;;3.17;;
76115;SDS011;64847;45.778;12.802;2023-07-16T08:16:32;3.00;;;2.80;;
76115;SDS011;64847;45.778;12.802;2023-07-16T08:18:57;3.20;;;2.90;;
76115;SDS011;64847;45.778;12.802;2023-07-16T08:21:23;3.97;;;2.80;;
76115;SDS011;64847;45.778;12.802;2023-07-16T08:23:48;3.60;;;2.92;;
76115;SDS011;64847;45.778;12.802;2023-07-16T08:26:14;3.05;;;2.75;;
76115;SDS011;64847;45.778;12.802;2023-07-16T08:28:39;3.20;;;2.88;;
76115;SDS011;64847;45.778;12.802;2023-07-16T08:31:05;3.17;;;2.97;;
76115;SDS011;64847;45.778;12.802;2023-07-16T08:33:30;3.30;;;3.03;;
76115;SDS011;64847;45.778;12.802;2023-07-16T08:35:56;3.22;;;2.80;;
76115;SDS011;64847;45.778;12.802;2023-07-16T08:38:21;3.25;;;3.05;;
76115;SDS011;64847;45.778;12.802;2023-07-16T08:40:47;2.90;;;2.70;;
76115;SDS011;64847;45.778;12.802;2023-07-16T08:43:13;2.92;;;2.70;;
76115;SDS011;64847;45.778;12.802;2023-07-16T08:45:41;3.03;;;2.83;;
76115;SDS011;64847;45.778;12.802;2023-07-16T08:48:10;3.20;;;2.72;;
76115;SDS011;64847;45.778;12.802;2023-07-16T08:50:36;2.97;;;2.78;;
76115;SDS011;64847;45.778;12.802;2023-07-16T08:53:04;3.00;;;2.80;;
76115;SDS011;64847;45.778;12.802;2023-07-16T08:55:30;2.70;;;2.50;;
76115;SDS011;64847;45.778;12.802;2023-07-16T08:57:55;2.78;;;2.58;;
76115;SDS011;64847;45.778;12.802;2023-07-16T09:00:21;4.47;;;3.08;;
76115;SDS011;64847;45.778;12.802;2023-07-16T09:02:47;3.28;;;3.08;;
76115;SDS011;64847;45.778;12.802;2023-07-16T09:05:13;3.53;;;3.22;;
76115;SDS011;64847;45.778;12.802;2023-07-16T09:07:39;3.33;;;3.08;;
76115;SDS011;64847;45.778;12.802;2023-07-16T09:10:05;4.00;;;3.60;;
76115;SDS011;64847;45.778;12.802;2023-07-16T09:12:31;3.40;;;3.20;;
76115;SDS011;64847;45.778;12.802;2023-07-16T09:14:56;3.22;;;3.03;;
76115;SDS011;64847;45.778;12.802;2023-07-16T09:17:22;3.22;;;3.03;;
76115;SDS011;64847;45.778;12.802;2023-07-16T09:19:49;3.35;;;3.15;;
76115;SDS011;64847;45.778;12.802;2023-07-16T09:22:19;3.10;;;2.90;;
76115;SDS011;64847;45.778;12.802;2023-07-16T09:24:46;3.30;;;3.10;;
76115;SDS011;64847;45.778;12.802;2023-07-16T09:27:12;3.45;;;3.25;;
76115;SDS011;64847;45.778;12.802;2023-07-16T09:29:38;3.55;;;3.25;;
76115;SDS011;64847;45.778;12.802;2023-07-16T09:32:04;3.40;;;3.20;;
76115;SDS011;64847;45.778;12.802;2023-07-16T09:34:30;3.45;;;3.15;;
76115;SDS011;64847;45.778;12.802;2023-07-16T09:36:56;3.13;;;2.88;;
76115;SDS011;64847;45.778;12.802;2023-07-16T09:39:25;3.42;;;3.13;;
76115;SDS011;64847;45.778;12.802;2023-07-16T09:41:52;3.08;;;2.88;;
76115;SDS011;64847;45.778;12.802;2023-07-16T09:44:18;3.40;;;3.20;;
76115;SDS011;64847;45.778;12.802;2023-07-16T09:46:44;3.10;;;2.80;;
76115;SDS011;64847;45.778;12.802;2023-07-16T09:49:11;3.30;;;3.10;;
76115;SDS011;64847;45.778;12.802;2023-07-16T09:51:37;3.80;;;2.92;;
76115;SDS011;64847;45.778;12.802;2023-07-16T09:54:03;3.35;;;3.15;;
76115;SDS011;64847;45.778;12.802;2023-07-16T09:56:39;3.70;;;3.40;;
76115;SDS011;64847;45.778;12.802;2023-07-16T09:59:11;3.05;;;2.85;;
76115;SDS011;64847;45.778;12.802;2023-07-16T10:01:39;3.63;;;3.20;;
76115;SDS011;64847;45.778;12.802;2023-07-16T10:04:11;3.60;;;3.30;;
76115;SDS011;64847;45.778;12.802;2023-07-16T10:06:48;3.35;;;2.85;;
76115;SDS011;64847;45.778;12.802;2023-07-16T10:09:14;3.97;;;3.22;;
76115;SDS011;64847;45.778;12.802;2023-07-16T10:11:40;4.32;;;3.22;;
76115;SDS011;64847;45.778;12.802;2023-07-16T10:14:07;3.28;;;3.03;;
76115;SDS011;64847;45.778;12.802;2023-07-16T10:16:36;3.80;;;3.50;;
76115;SDS011;64847;45.778;12.802;2023-07-16T10:19:04;3.95;;;3.60;;
76115;SDS011;64847;45.778;12.802;2023-07-16T10:21:29;3.75;;;3.28;;
76115;SDS011;64847;45.778;12.802;2023-07-16T10:24:03;3.63;;;3.33;;
76115;SDS011;64847;45.778;12.802;2023-07-16T10:26:30;3.58;;;3.28;;
76115;SDS011;64847;45.778;12.802;2023-07-16T10:28:55;3.95;;;3.25;;
76115;SDS011;64847;45.778;12.802;2023-07-16T10:31:21;4.20;;;3.42;;
76115;SDS011;64847;45.778;12.802;2023-07-16T10:34:01;4.32;;;3.47;;
76115;SDS011;64847;45.778;12.802;2023-07-16T10:36:29;3.43;;;3.13;;
76115;SDS011;64847;45.778;12.802;2023-07-16T10:39:01;3.58;;;3.28;;
76115;SDS011;64847;45.778;12.802;2023-07-16T10:41:28;4.18;;;3.88;;
76115;SDS011;64847;45.778;12.802;2023-07-16T10:43:53;3.55;;;3.25;;
76115;SDS011;64847;45.778;12.802;2023-07-16T10:46:19;3.25;;;3.05;;
76115;SDS011;64847;45.778;12.802;2023-07-16T10:48:46;4.20;;;3.80;;
76115;SDS011;64847;45.778;12.802;2023-07-16T10:51:14;3.30;;;3.10;;
76115;SDS011;64847;45.778;12.802;2023-07-16T10:53:41;3.60;;;3.30;;
76115;SDS011;64847;45.778;12.802;2023-07-16T10:56:07;3.45;;;3.25;;
76115;SDS011;64847;45.778;12.802;2023-07-16T10:58:33;4.10;;;3.50;;
76115;SDS011;64847;45.778;12.802;2023-07-16T11:00:58;3.65;;;3.35;;
76115;SDS011;64847;45.778;12.802;2023-07-16T11:03:23;3.90;;;3.60;;
76115;SDS011;64847;45.778;12.802;2023-07-16T11:05:49;3.60;;;3.30;;
76115;SDS011;64847;45.778;12.802;2023-07-16T11:08:21;3.67;;;3.38;;
76115;SDS011;64847;45.778;12.802;2023-07-16T11:10:57;4.55;;;3.25;;
76115;SDS011;64847;45.778;12.802;2023-07-16T11:13:27;4.25;;;3.42;;
76115;SDS011;64847;45.778;12.802;2023-07-16T11:15:53;3.70;;;3.38;;
76115;SDS011;64847;45.778;12.802;2023-07-16T11:18:21;4.18;;;3.80;;
76115;SDS011;64847;45.778;12.802;2023-07-16T11:20:50;3.67;;;3.38;;
76115;SDS011;64847;45.778;12.802;2023-07-16T11:23:17;4.60;;;3.58;;
76115;SDS011;64847;45.778;12.802;2023-07-16T11:25:47;3.78;;;3.47;;
76115;SDS011;64847;45.778;12.802;2023-07-16T11:28:13;3.47;;;3.17;;
76115;SDS011;64847;45.778;12.802;2023-07-16T11:30:38;3.67;;;3.38;;
76115;SDS011;64847;45.778;12.802;2023-07-16T11:33:09;3.25;;;3.05;;
76115;SDS011;64847;45.778;12.802;2023-07-16T11:35:35;3.80;;;3.28;;
76115;SDS011;64847;45.778;12.802;2023-07-16T11:38:01;3.60;;;3.30;;
76115;SDS011;64847;45.778;12.802;2023-07-16T11:40:27;3.40;;;3.20;;
76115;SDS011;64847;45.778;12.802;2023-07-16T11:42:53;3.72;;;3.40;;
76115;SDS011;64847;45.778;12.802;2023-07-16T11:45:19;4.93;;;3.72;;
76115;SDS011;64847;45.778;12.802;2023-07-16T11:47:46;3.65;;;3.30;;
76115;SDS011;64847;45.778;12.802;2023-07-16T11:50:12;4.32;;;3.17;;
76115;SDS011;64847;45.778;12.802;2023-07-16T11:52:38;3.30;;;3.10;;
76115;SDS011;64847;45.778;12.802;2023-07-16T11:55:04;3.40;;;3.10;;
76115;SDS011;64847;45.778;12.802;2023-07-16T11:57:30;3.90;;;3.60;;
76115;SDS011;64847;45.778;12.802;2023-07-16T11:59:55;3.90;;;3.50;;
76115;SDS011;64847;45.778;12.802;2023-07-16T12:02:21;4.18;;;3.75;;
76115;SDS011;64847;45.778;12.802;2023-07-16T12:04:47;3.63;;;3.33;;
76115;SDS011;64847;45.778;12.802;2023-07-16T12:07:30;3.75;;;3.38;;
76115;SDS011;64847;45.778;12.802;2023-07-16T12:10:00;3.33;;;3.10;;
76115;SDS011;64847;45.778;12.802;2023-07-16T12:12:25;3.30;;;3.10;;
76115;SDS011;64847;45.778;12.802;2023-07-16T12:14:51;3.58;;;3.28;;
76115;SDS011;64847;45.778;12.802;2023-07-16T12:17:16;3.50;;;3.28;;
76115;SDS011;64847;45.778;12.802;2023-07-16T12:19:41;4.03;;;3.22;;
76115;SDS011;64847;45.778;12.802;2023-07-16T12:22:07;3.35;;;3.05;;
76115;SDS011;64847;45.778;12.802;2023-07-16T12:24:33;4.18;;;3.78;;
76115;SDS011;64847;45.778;12.802;2023-07-16T12:26:58;3.55;;;3.25;;
76115;SDS011;64847;45.778;12.802;2023-07-16T12:29:23;3.50;;;3.20;;
76115;SDS011;64847;45.778;12.802;2023-07-16T12:31:49;3.42;;;3.15;;
76115;SDS011;64847;45.778;12.802;2023-07-16T12:34:15;3.58;;;3.15;;
76115;SDS011;64847;45.778;12.802;2023-07-16T12:36:40;3.20;;;3.00;;
76115;SDS011;64847;45.778;12.802;2023-07-16T12:39:05;3.60;;;3.30;;
76115;SDS011;64847;45.778;12.802;2023-07-16T12:41:31;3.70;;;3.40;;
76115;SDS011;64847;45.778;12.802;2023-07-16T12:43:56;3.50;;;3.20;;
76115;SDS011;64847;45.778;12.802;2023-07-16T12:46:22;3.53;;;3.13;;
76115;SDS011;64847;45.778;12.802;2023-07-16T12:48:47;3.17;;;2.97;;
76115;SDS011;64847;45.778;12.802;2023-07-16T12:51:12;3.03;;;2.83;;
76115;SDS011;64847;45.778;12.802;2023-07-16T12:53:38;3.80;;;3.20;;
76115;SDS011;64847;45.778;12.802;2023-07-16T12:56:04;3.85;;;3.22;;
76115;SDS011;64847;45.778;12.802;2023-07-16T12:58:30;3.67;;;3.38;;
76115;SDS011;64847;45.778;12.802;2023-07-16T13:00:55;4.40;;;3.80;;
76115;SDS011;64847;45.778;12.802;2023-07-16T13:03:20;4.40;;;4.00;;
76115;SDS011;64847;45.778;12.802;2023-07-16T13:05:47;4.03;;;3.65;;
76115;SDS011;64847;45.778;12.802;2023-07-16T13:08:12;4.13;;;3.72;;
76115;SDS011;64847;45.778;12.802;2023-07-16T13:10:38;5.82;;;3.83;;
76115;SDS011;64847;45.778;12.802;2023-07-16T13:13:04;3.95;;;3.65;;
76115;SDS011;64847;45.778;12.802;2023-07-16T13:15:29;3.85;;;3.45;;
76115;SDS011;64847;45.778;12.802;2023-07-16T13:17:55;3.97;;;3.58;;
76115;SDS011;64847;45.778;12.802;2023-07-16T13:20:21;4.05;;;3.70;;
76115;SDS011;64847;45.778;12.802;2023-07-16T13:22:46;3.65;;;3.28;;
76115;SDS011;64847;45.778;12.802;2023-07-16T13:25:12;3.92;;;3.50;;
76115;SDS011;64847;45.778;12.802;2023-07-16T13:27:37;4.05;;;3.05;;
76115;SDS011;64847;45.778;12.802;2023-07-16T13:30:03;4.65;;;3.05;;
76115;SDS011;64847;45.778;12.802;2023-07-16T13:32:29;5.00;;;3.20;;
76115;SDS011;64847;45.778;12.802;2023-07-16T13:34:54;3.60;;;3.30;;
76115;SDS011;64847;45.778;12.802;2023-07-16T13:37:19;4.43;;;3.20;;
76115;SDS011;64847;45.778;12.802;2023-07-16T13:39:45;4.35;;;3.40;;
76115;SDS011;64847;45.778;12.802;2023-07-16T13:42:10;4.07;;;3.53;;
76115;SDS011;64847;45.778;12.802;2023-07-16T13:44:36;5.32;;;3.88;;
76115;SDS011;64847;45.778;12.802;2023-07-16T13:47:02;4.82;;;3.80;;
76115;SDS011;64847;45.778;12.802;2023-07-16T13:49:27;3.60;;;3.30;;
76115;SDS011;64847;45.778;12.802;2023-07-16T13:51:52;3.95;;;3.65;;
76115;SDS011;64847;45.778;12.802;2023-07-16T13:54:19;3.97;;;3.40;;
76115;SDS011;64847;45.778;12.802;2023-07-16T13:56:44;3.95;;;3.55;;
76115;SDS011;64847;45.778;12.802;2023-07-16T13:59:10;3.95;;;3.65;;
76115;SDS011;64847;45.778;12.802;2023-07-16T14:01:37;5.90;;;3.75;;
76115;SDS011;64847;45.778;12.802;2023-07-16T14:04:04;4.30;;;3.67;;
76115;SDS011;64847;45.778;12.802;2023-07-16T14:06:29;5.40;;;3.80;;
76115;SDS011;64847;45.778;12.802;2023-07-16T14:08:55;3.70;;;3.30;;
76115;SDS011;64847;45.778;12.802;2023-07-16T14:11:20;4.10;;;3.70;;
76115;SDS011;64847;45.778;12.802;2023-07-16T14:13:46;4.63;;;3.85;;
76115;SDS011;64847;45.778;12.802;2023-07-16T14:16:16;4.38;;;3.60;;
76115;SDS011;64847;45.778;12.802;2023-07-16T14:18:41;3.63;;;3.35;;
76115;SDS011;64847;45.778;12.802;2023-07-16T14:21:07;4.97;;;3.50;;
76115;SDS011;64847;45.778;12.802;2023-07-16T14:23:32;4.50;;;3.40;;
76115;SDS011;64847;45.778;12.802;2023-07-16T14:25:58;5.07;;;3.60;;
76115;SDS011;64847;45.778;12.802;2023-07-16T14:30:52;3.72;;;3.42;;
76115;SDS011;64847;45.778;12.802;2023-07-16T14:33:18;4.78;;;3.80;;
76115;SDS011;64847;45.778;12.802;2023-07-16T14:35:43;3.63;;;3.33;;
76115;SDS011;64847;45.778;12.802;2023-07-16T14:38:09;4.97;;;3.75;;
76115;SDS011;64847;45.778;12.802;2023-07-16T14:40:34;5.35;;;4.20;;